sensor_id;sensor_type;location;lat;lon;timestamp;temperature;humidity
59505;DHT22;45321;53.200;5.814;2023-04-03T00:00:29;7.00;61.00
59505;DHT22;45321;53.200;5.814;2023-04-03T00:02:55;7.00;61.10
59505;DHT22;45321;53.200;5.814;2023-04-03T00:05:21;7.00;61.40
59505;DHT22;45321;53.200;5.814;2023-04-03T00:07:47;7.00;61.60
59505;DHT22;45321;53.200;5.814;2023-04-03T00:10:12;7.00;61.50
59505;DHT22;45321;53.200;5.814;2023-04-03T00:12:39;6.90;61.80
59505;DHT22;45321;53.200;5.814;2023-04-03T00:15:05;6.90;61.90
59505;DHT22;45321;53.200;5.814;2023-04-03T00:17:31;6.90;61.90
59505;DHT22;45321;53.200;5.814;2023-04-03T00:19:59;6.90;62.00
59505;DHT22;45321;53.200;5.814;2023-04-03T00:22:24;6.90;62.20
59505;DHT22;45321;53.200;5.814;2023-04-03T00:24:52;6.80;62.20
59505;DHT22;45321;53.200;5.814;2023-04-03T00:27:17;6.80;62.40
59505;DHT22;45321;53.200;5.814;2023-04-03T00:29:43;6.80;62.40
59505;DHT22;45321;53.200;5.814;2023-04-03T00:32:09;6.80;62.50
59505;DHT22;45321;53.200;5.814;2023-04-03T00:34:35;6.70;62.60
59505;DHT22;45321;53.200;5.814;2023-04-03T00:37:01;6.60;62.90
59505;DHT22;45321;53.200;5.814;2023-04-03T00:39:26;6.60;63.20
59505;DHT22;45321;53.200;5.814;2023-04-03T00:41:52;6.50;63.40
59505;DHT22;45321;53.200;5.814;2023-04-03T00:47:00;6.40;64.00
59505;DHT22;45321;53.200;5.814;2023-04-03T00:49:26;6.30;63.80
59505;DHT22;45321;53.200;5.814;2023-04-03T00:51:53;6.30;64.00
59505;DHT22;45321;53.200;5.814;2023-04-03T00:54:19;6.30;63.70
59505;DHT22;45321;53.200;5.814;2023-04-03T00:56:45;6.20;63.90
59505;DHT22;45321;53.200;5.814;2023-04-03T00:59:15;6.20;63.50
59505;DHT22;45321;53.200;5.814;2023-04-03T01:01:42;6.20;63.50
59505;DHT22;45321;53.200;5.814;2023-04-03T01:06:55;6.20;63.40
59505;DHT22;45321;53.200;5.814;2023-04-03T01:09:21;6.20;63.40
59505;DHT22;45321;53.200;5.814;2023-04-03T01:11:48;6.20;63.30
59505;DHT22;45321;53.200;5.814;2023-04-03T01:14:13;6.10;63.10
59505;DHT22;45321;53.200;5.814;2023-04-03T01:16:39;6.10;62.90
59505;DHT22;45321;53.200;5.814;2023-04-03T01:19:10;6.10;63.00
59505;DHT22;45321;53.200;5.814;2023-04-03T01:26:59;6.00;61.70
59505;DHT22;45321;53.200;5.814;2023-04-03T01:29:26;6.00;61.30
59505;DHT22;45321;53.200;5.814;2023-04-03T01:32:00;6.00;61.00
59505;DHT22;45321;53.200;5.814;2023-04-03T01:34:28;6.00;60.40
59505;DHT22;45321;53.200;5.814;2023-04-03T01:36:54;5.90;60.40
59505;DHT22;45321;53.200;5.814;2023-04-03T01:39:20;5.90;60.00
59505;DHT22;45321;53.200;5.814;2023-04-03T01:41:46;5.80;60.00
59505;DHT22;45321;53.200;5.814;2023-04-03T01:44:12;5.80;60.10
59505;DHT22;45321;53.200;5.814;2023-04-03T01:46:38;5.80;60.10
59505;DHT22;45321;53.200;5.814;2023-04-03T01:49:04;5.80;60.10
59505;DHT22;45321;53.200;5.814;2023-04-03T01:51:30;5.70;60.10
59505;DHT22;45321;53.200;5.814;2023-04-03T01:53:56;5.60;60.20
59505;DHT22;45321;53.200;5.814;2023-04-03T01:56:22;5.60;60.50
59505;DHT22;45321;53.200;5.814;2023-04-03T01:58:48;5.50;60.60
59505;DHT22;45321;53.200;5.814;2023-04-03T02:01:13;5.50;61.00
59505;DHT22;45321;53.200;5.814;2023-04-03T02:03:40;5.40;60.80
59505;DHT22;45321;53.200;5.814;2023-04-03T02:06:06;5.40;60.70
59505;DHT22;45321;53.200;5.814;2023-04-03T02:08:32;5.40;61.00
59505;DHT22;45321;53.200;5.814;2023-04-03T02:10:57;5.30;61.30
59505;DHT22;45321;53.200;5.814;2023-04-03T02:13:23;5.30;61.30
59505;DHT22;45321;53.200;5.814;2023-04-03T02:15:49;5.30;61.60
59505;DHT22;45321;53.200;5.814;2023-04-03T02:18:15;5.30;61.60
59505;DHT22;45321;53.200;5.814;2023-04-03T02:20:41;5.30;62.10
59505;DHT22;45321;53.200;5.814;2023-04-03T02:23:06;5.30;61.80
59505;DHT22;45321;53.200;5.814;2023-04-03T02:25:33;5.30;62.40
59505;DHT22;45321;53.200;5.814;2023-04-03T02:27:59;5.30;62.50
59505;DHT22;45321;53.200;5.814;2023-04-03T02:30:25;5.30;62.60
59505;DHT22;45321;53.200;5.814;2023-04-03T02:32:53;5.30;62.90
59505;DHT22;45321;53.200;5.814;2023-04-03T02:35:19;5.30;62.80
59505;DHT22;45321;53.200;5.814;2023-04-03T02:37:45;5.30;62.80
59505;DHT22;45321;53.200;5.814;2023-04-03T02:40:11;5.20;62.90
59505;DHT22;45321;53.200;5.814;2023-04-03T02:42:37;5.10;63.10
59505;DHT22;45321;53.200;5.814;2023-04-03T02:45:03;5.10;63.00
59505;DHT22;45321;53.200;5.814;2023-04-03T02:47:29;5.10;63.20
59505;DHT22;45321;53.200;5.814;2023-04-03T02:49:55;5.00;63.40
59505;DHT22;45321;53.200;5.814;2023-04-03T02:52:21;5.00;63.50
59505;DHT22;45321;53.200;5.814;2023-04-03T02:54:46;4.90;63.60
59505;DHT22;45321;53.200;5.814;2023-04-03T02:57:12;4.90;63.80
59505;DHT22;45321;53.200;5.814;2023-04-03T02:59:38;4.80;64.00
59505;DHT22;45321;53.200;5.814;2023-04-03T03:02:10;4.80;64.10
59505;DHT22;45321;53.200;5.814;2023-04-03T03:04:37;4.80;64.10
59505;DHT22;45321;53.200;5.814;2023-04-03T03:07:03;4.80;64.10
59505;DHT22;45321;53.200;5.814;2023-04-03T03:09:29;4.80;64.20
59505;DHT22;45321;53.200;5.814;2023-04-03T03:11:56;4.80;64.50
59505;DHT22;45321;53.200;5.814;2023-04-03T03:14:22;4.70;64.60
59505;DHT22;45321;53.200;5.814;2023-04-03T03:16:48;4.70;64.60
59505;DHT22;45321;53.200;5.814;2023-04-03T03:19:14;4.70;64.80
59505;DHT22;45321;53.200;5.814;2023-04-03T03:21:39;4.60;64.80
59505;DHT22;45321;53.200;5.814;2023-04-03T03:24:05;4.60;64.80
59505;DHT22;45321;53.200;5.814;2023-04-03T03:26:31;4.60;64.90
59505;DHT22;45321;53.200;5.814;2023-04-03T03:28:57;4.50;64.80
59505;DHT22;45321;53.200;5.814;2023-04-03T03:31:23;4.50;64.80
59505;DHT22;45321;53.200;5.814;2023-04-03T03:33:49;4.60;65.00
59505;DHT22;45321;53.200;5.814;2023-04-03T03:36:14;4.50;65.20
59505;DHT22;45321;53.200;5.814;2023-04-03T03:38:40;4.50;65.10
59505;DHT22;45321;53.200;5.814;2023-04-03T03:41:06;4.40;65.30
59505;DHT22;45321;53.200;5.814;2023-04-03T03:43:32;4.40;65.40
59505;DHT22;45321;53.200;5.814;2023-04-03T03:45:58;4.40;65.30
59505;DHT22;45321;53.200;5.814;2023-04-03T03:48:23;4.40;65.30
59505;DHT22;45321;53.200;5.814;2023-04-03T03:50:50;4.30;65.60
59505;DHT22;45321;53.200;5.814;2023-04-03T03:53:15;4.30;65.60
59505;DHT22;45321;53.200;5.814;2023-04-03T03:55:41;4.30;65.70
59505;DHT22;45321;53.200;5.814;2023-04-03T03:58:07;4.20;65.90
59505;DHT22;45321;53.200;5.814;2023-04-03T04:00:33;4.20;65.90
59505;DHT22;45321;53.200;5.814;2023-04-03T04:02:59;4.20;66.50
59505;DHT22;45321;53.200;5.814;2023-04-03T04:05:25;4.10;66.30
59505;DHT22;45321;53.200;5.814;2023-04-03T04:07:51;4.10;66.30
59505;DHT22;45321;53.200;5.814;2023-04-03T04:10:17;4.00;66.70
59505;DHT22;45321;53.200;5.814;2023-04-03T04:12:43;4.00;66.80
59505;DHT22;45321;53.200;5.814;2023-04-03T04:15:09;3.90;66.70
59505;DHT22;45321;53.200;5.814;2023-04-03T04:17:36;3.90;66.80
59505;DHT22;45321;53.200;5.814;2023-04-03T04:20:03;3.90;66.90
59505;DHT22;45321;53.200;5.814;2023-04-03T04:22:30;3.90;67.20
59505;DHT22;45321;53.200;5.814;2023-04-03T04:24:56;3.90;66.90
59505;DHT22;45321;53.200;5.814;2023-04-03T04:27:21;3.90;67.20
59505;DHT22;45321;53.200;5.814;2023-04-03T04:29:47;3.80;67.20
59505;DHT22;45321;53.200;5.814;2023-04-03T04:32:13;3.80;67.30
59505;DHT22;45321;53.200;5.814;2023-04-03T04:34:38;3.80;67.30
59505;DHT22;45321;53.200;5.814;2023-04-03T04:37:07;3.80;67.30
59505;DHT22;45321;53.200;5.814;2023-04-03T04:39:33;3.80;67.70
59505;DHT22;45321;53.200;5.814;2023-04-03T04:41:58;3.90;67.50
59505;DHT22;45321;53.200;5.814;2023-04-03T04:44:24;3.90;67.80
59505;DHT22;45321;53.200;5.814;2023-04-03T04:46:50;3.80;67.70
59505;DHT22;45321;53.200;5.814;2023-04-03T04:49:16;3.90;67.80
59505;DHT22;45321;53.200;5.814;2023-04-03T04:51:41;3.90;67.70
59505;DHT22;45321;53.200;5.814;2023-04-03T04:54:10;3.90;68.00
59505;DHT22;45321;53.200;5.814;2023-04-03T04:56:35;3.90;68.00
59505;DHT22;45321;53.200;5.814;2023-04-03T04:59:01;3.90;68.10
59505;DHT22;45321;53.200;5.814;2023-04-03T05:01:27;3.90;68.00
59505;DHT22;45321;53.200;5.814;2023-04-03T05:03:52;3.90;68.20
59505;DHT22;45321;53.200;5.814;2023-04-03T05:06:19;3.90;68.20
59505;DHT22;45321;53.200;5.814;2023-04-03T05:08:44;3.90;68.20
59505;DHT22;45321;53.200;5.814;2023-04-03T05:11:10;3.80;68.60
59505;DHT22;45321;53.200;5.814;2023-04-03T05:13:36;3.80;68.60
59505;DHT22;45321;53.200;5.814;2023-04-03T05:16:01;3.80;68.60
59505;DHT22;45321;53.200;5.814;2023-04-03T05:18:27;3.80;68.70
59505;DHT22;45321;53.200;5.814;2023-04-03T05:20:56;3.80;68.90
59505;DHT22;45321;53.200;5.814;2023-04-03T05:23:21;3.80;68.70
59505;DHT22;45321;53.200;5.814;2023-04-03T05:25:47;3.70;68.70
59505;DHT22;45321;53.200;5.814;2023-04-03T05:28:14;3.80;68.50
59505;DHT22;45321;53.200;5.814;2023-04-03T05:30:40;3.70;68.90
59505;DHT22;45321;53.200;5.814;2023-04-03T05:33:06;3.60;68.60
59505;DHT22;45321;53.200;5.814;2023-04-03T05:35:32;3.60;69.20
59505;DHT22;45321;53.200;5.814;2023-04-03T05:37:57;3.60;69.00
59505;DHT22;45321;53.200;5.814;2023-04-03T05:40:23;3.60;69.00
59505;DHT22;45321;53.200;5.814;2023-04-03T05:42:49;3.60;69.20
59505;DHT22;45321;53.200;5.814;2023-04-03T05:45:15;3.50;69.20
59505;DHT22;45321;53.200;5.814;2023-04-03T05:47:40;3.50;69.00
59505;DHT22;45321;53.200;5.814;2023-04-03T05:50:06;3.50;69.10
59505;DHT22;45321;53.200;5.814;2023-04-03T05:52:36;3.50;69.20
59505;DHT22;45321;53.200;5.814;2023-04-03T05:55:02;3.60;69.20
59505;DHT22;45321;53.200;5.814;2023-04-03T05:57:28;3.50;68.80
59505;DHT22;45321;53.200;5.814;2023-04-03T05:59:56;3.50;68.80
59505;DHT22;45321;53.200;5.814;2023-04-03T06:02:24;3.60;68.90
59505;DHT22;45321;53.200;5.814;2023-04-03T06:04:50;3.60;68.70
59505;DHT22;45321;53.200;5.814;2023-04-03T06:07:19;3.50;68.80
59505;DHT22;45321;53.200;5.814;2023-04-03T06:09:49;3.60;69.10
59505;DHT22;45321;53.200;5.814;2023-04-03T06:12:15;3.60;69.20
59505;DHT22;45321;53.200;5.814;2023-04-03T06:14:40;3.60;69.20
59505;DHT22;45321;53.200;5.814;2023-04-03T06:17:07;3.50;69.10
59505;DHT22;45321;53.200;5.814;2023-04-03T06:19:34;3.60;69.20
59505;DHT22;45321;53.200;5.814;2023-04-03T06:22:00;3.60;69.30
59505;DHT22;45321;53.200;5.814;2023-04-03T06:24:27;3.60;69.10
59505;DHT22;45321;53.200;5.814;2023-04-03T06:26:53;3.60;69.10
59505;DHT22;45321;53.200;5.814;2023-04-03T06:29:19;3.60;69.30
59505;DHT22;45321;53.200;5.814;2023-04-03T06:31:45;3.60;69.20
59505;DHT22;45321;53.200;5.814;2023-04-03T06:34:11;3.60;69.60
59505;DHT22;45321;53.200;5.814;2023-04-03T06:36:38;3.60;69.10
59505;DHT22;45321;53.200;5.814;2023-04-03T06:39:04;3.60;69.30
59505;DHT22;45321;53.200;5.814;2023-04-03T06:41:30;3.70;69.20
59505;DHT22;45321;53.200;5.814;2023-04-03T06:43:57;3.70;69.30
59505;DHT22;45321;53.200;5.814;2023-04-03T06:46:24;3.70;69.40
59505;DHT22;45321;53.200;5.814;2023-04-03T06:48:51;3.80;69.20
59505;DHT22;45321;53.200;5.814;2023-04-03T06:51:22;3.80;69.20
59505;DHT22;45321;53.200;5.814;2023-04-03T06:53:50;3.90;69.10
59505;DHT22;45321;53.200;5.814;2023-04-03T06:56:17;3.90;68.90
59505;DHT22;45321;53.200;5.814;2023-04-03T06:58:43;4.10;69.10
59505;DHT22;45321;53.200;5.814;2023-04-03T07:01:10;4.10;68.80
59505;DHT22;45321;53.200;5.814;2023-04-03T07:03:37;4.30;68.70
59505;DHT22;45321;53.200;5.814;2023-04-03T07:06:04;4.30;68.50
59505;DHT22;45321;53.200;5.814;2023-04-03T07:08:31;4.50;68.40
59505;DHT22;45321;53.200;5.814;2023-04-03T07:10:57;4.60;68.50
59505;DHT22;45321;53.200;5.814;2023-04-03T07:13:23;4.80;68.30
59505;DHT22;45321;53.200;5.814;2023-04-03T07:15:48;4.90;67.70
59505;DHT22;45321;53.200;5.814;2023-04-03T07:18:14;5.10;67.30
59505;DHT22;45321;53.200;5.814;2023-04-03T07:20:41;5.10;66.30
59505;DHT22;45321;53.200;5.814;2023-04-03T07:23:06;5.30;66.10
59505;DHT22;45321;53.200;5.814;2023-04-03T07:25:32;5.30;64.70
59505;DHT22;45321;53.200;5.814;2023-04-03T07:27:59;5.30;64.50
59505;DHT22;45321;53.200;5.814;2023-04-03T07:30:25;5.40;64.20
59505;DHT22;45321;53.200;5.814;2023-04-03T07:32:52;5.50;64.60
59505;DHT22;45321;53.200;5.814;2023-04-03T07:35:18;5.60;64.00
59505;DHT22;45321;53.200;5.814;2023-04-03T07:37:44;5.70;63.00
59505;DHT22;45321;53.200;5.814;2023-04-03T07:40:10;5.80;63.50
59505;DHT22;45321;53.200;5.814;2023-04-03T07:42:36;5.90;63.60
59505;DHT22;45321;53.200;5.814;2023-04-03T07:45:03;6.00;62.90
59505;DHT22;45321;53.200;5.814;2023-04-03T07:47:29;6.10;61.50
59505;DHT22;45321;53.200;5.814;2023-04-03T07:49:56;6.10;60.40
59505;DHT22;45321;53.200;5.814;2023-04-03T07:52:23;6.20;60.50
59505;DHT22;45321;53.200;5.814;2023-04-03T07:54:49;6.30;60.60
59505;DHT22;45321;53.200;5.814;2023-04-03T07:57:14;6.30;60.00
59505;DHT22;45321;53.200;5.814;2023-04-03T07:59:40;6.40;60.10
59505;DHT22;45321;53.200;5.814;2023-04-03T08:02:13;6.60;59.90
59505;DHT22;45321;53.200;5.814;2023-04-03T08:04:38;6.60;57.10
59505;DHT22;45321;53.200;5.814;2023-04-03T08:07:05;6.70;58.10
59505;DHT22;45321;53.200;5.814;2023-04-03T08:09:31;6.80;58.10
59505;DHT22;45321;53.200;5.814;2023-04-03T08:11:58;6.90;57.70
59505;DHT22;45321;53.200;5.814;2023-04-03T08:14:24;6.90;56.70
59505;DHT22;45321;53.200;5.814;2023-04-03T08:16:50;7.00;54.50
59505;DHT22;45321;53.200;5.814;2023-04-03T08:19:16;7.00;54.50
59505;DHT22;45321;53.200;5.814;2023-04-03T08:21:44;7.10;54.20
59505;DHT22;45321;53.200;5.814;2023-04-03T08:24:11;7.30;56.10
59505;DHT22;45321;53.200;5.814;2023-04-03T08:26:37;7.30;55.10
59505;DHT22;45321;53.200;5.814;2023-04-03T08:29:03;7.40;54.70
59505;DHT22;45321;53.200;5.814;2023-04-03T08:31:29;7.50;54.40
59505;DHT22;45321;53.200;5.814;2023-04-03T08:33:57;7.50;53.80
59505;DHT22;45321;53.200;5.814;2023-04-03T08:36:25;7.70;53.10
59505;DHT22;45321;53.200;5.814;2023-04-03T08:38:53;7.70;53.70
59505;DHT22;45321;53.200;5.814;2023-04-03T08:41:41;7.80;52.20
59505;DHT22;45321;53.200;5.814;2023-04-03T08:49:42;8.10;52.60
59505;DHT22;45321;53.200;5.814;2023-04-03T08:55:01;8.30;48.00
59505;DHT22;45321;53.200;5.814;2023-04-03T08:57:43;8.30;49.50
59505;DHT22;45321;53.200;5.814;2023-04-03T09:00:19;8.40;49.70
59505;DHT22;45321;53.200;5.814;2023-04-03T09:02:50;8.60;48.70
59505;DHT22;45321;53.200;5.814;2023-04-03T09:05:20;8.70;48.40
59505;DHT22;45321;53.200;5.814;2023-04-03T09:10:44;8.80;46.90
59505;DHT22;45321;53.200;5.814;2023-04-03T09:15:56;8.90;45.50
59505;DHT22;45321;53.200;5.814;2023-04-03T09:18:41;9.00;43.10
59505;DHT22;45321;53.200;5.814;2023-04-03T09:21:23;9.00;42.00
59505;DHT22;45321;53.200;5.814;2023-04-03T09:23:52;9.10;42.70
59505;DHT22;45321;53.200;5.814;2023-04-03T09:26:24;9.20;41.60
59505;DHT22;45321;53.200;5.814;2023-04-03T09:28:57;9.30;41.80
59505;DHT22;45321;53.200;5.814;2023-04-03T09:31:27;9.30;41.30
59505;DHT22;45321;53.200;5.814;2023-04-03T09:33:59;9.40;40.30
59505;DHT22;45321;53.200;5.814;2023-04-03T09:36:46;9.40;37.90
59505;DHT22;45321;53.200;5.814;2023-04-03T09:39:18;9.50;40.80
59505;DHT22;45321;53.200;5.814;2023-04-03T09:42:03;9.60;41.00
59505;DHT22;45321;53.200;5.814;2023-04-03T09:44:33;9.70;41.40
59505;DHT22;45321;53.200;5.814;2023-04-03T09:52:39;9.90;39.50
59505;DHT22;45321;53.200;5.814;2023-04-03T09:55:17;10.00;39.40
59505;DHT22;45321;53.200;5.814;2023-04-03T09:57:47;10.10;38.40
59505;DHT22;45321;53.200;5.814;2023-04-03T10:00:35;10.20;39.10
59505;DHT22;45321;53.200;5.814;2023-04-03T10:03:02;10.20;38.50
59505;DHT22;45321;53.200;5.814;2023-04-03T10:05:41;10.30;38.00
59505;DHT22;45321;53.200;5.814;2023-04-03T10:10:47;10.30;34.30
59505;DHT22;45321;53.200;5.814;2023-04-03T10:15:45;10.40;35.50
59505;DHT22;45321;53.200;5.814;2023-04-03T10:21:05;10.70;35.00
59505;DHT22;45321;53.200;5.814;2023-04-03T10:24:34;10.70;33.90
59505;DHT22;45321;53.200;5.814;2023-04-03T10:29:32;10.90;33.70
59505;DHT22;45321;53.200;5.814;2023-04-03T10:35:15;11.10;36.30
59505;DHT22;45321;53.200;5.814;2023-04-03T10:46:06;11.60;33.60
59505;DHT22;45321;53.200;5.814;2023-04-03T10:54:24;12.00;33.10
59505;DHT22;45321;53.200;5.814;2023-04-03T10:57:03;12.30;33.00
59505;DHT22;45321;53.200;5.814;2023-04-03T10:59:34;12.30;32.10
59505;DHT22;45321;53.200;5.814;2023-04-03T11:04:58;12.30;30.30
59505;DHT22;45321;53.200;5.814;2023-04-03T11:07:28;12.30;30.60
59505;DHT22;45321;53.200;5.814;2023-04-03T11:10:13;12.60;31.30
59505;DHT22;45321;53.200;5.814;2023-04-03T11:12:47;12.70;29.80
59505;DHT22;45321;53.200;5.814;2023-04-03T11:15:19;12.80;30.70
59505;DHT22;45321;53.200;5.814;2023-04-03T11:18:11;13.00;31.80
59505;DHT22;45321;53.200;5.814;2023-04-03T11:20:42;13.30;29.90
59505;DHT22;45321;53.200;5.814;2023-04-03T11:23:21;13.50;30.00
59505;DHT22;45321;53.200;5.814;2023-04-03T11:25:53;13.60;29.50
59505;DHT22;45321;53.200;5.814;2023-04-03T11:28:19;13.80;28.10
59505;DHT22;45321;53.200;5.814;2023-04-03T11:39:17;14.70;29.20
59505;DHT22;45321;53.200;5.814;2023-04-03T11:41:44;14.90;28.30
59505;DHT22;45321;53.200;5.814;2023-04-03T11:44:33;14.90;26.30
59505;DHT22;45321;53.200;5.814;2023-04-03T11:47:01;14.90;26.70
59505;DHT22;45321;53.200;5.814;2023-04-03T11:50:03;15.10;26.90
59505;DHT22;45321;53.200;5.814;2023-04-03T12:16:22;16.30;26.20
59505;DHT22;45321;53.200;5.814;2023-04-03T12:21:15;16.70;27.50
59505;DHT22;45321;53.200;5.814;2023-04-03T12:48:15;18.10;24.60
59505;DHT22;45321;53.200;5.814;2023-04-03T12:50:45;18.20;25.00
59505;DHT22;45321;53.200;5.814;2023-04-03T12:53:24;18.20;24.60
59505;DHT22;45321;53.200;5.814;2023-04-03T12:56:19;18.20;24.00
59505;DHT22;45321;53.200;5.814;2023-04-03T12:58:41;18.40;24.40
59505;DHT22;45321;53.200;5.814;2023-04-03T13:01:13;18.60;23.90
59505;DHT22;45321;53.200;5.814;2023-04-03T13:03:43;18.70;24.20
59505;DHT22;45321;53.200;5.814;2023-04-03T13:06:22;18.70;24.00
59505;DHT22;45321;53.200;5.814;2023-04-03T13:08:57;18.90;24.30
59505;DHT22;45321;53.200;5.814;2023-04-03T13:11:25;19.10;24.00
59505;DHT22;45321;53.200;5.814;2023-04-03T13:13:56;19.00;22.50
59505;DHT22;45321;53.200;5.814;2023-04-03T13:16:22;19.20;23.60
59505;DHT22;45321;53.200;5.814;2023-04-03T13:18:53;19.50;24.40
59505;DHT22;45321;53.200;5.814;2023-04-03T13:21:23;19.50;22.50
59505;DHT22;45321;53.200;5.814;2023-04-03T13:23:52;19.90;24.30
59505;DHT22;45321;53.200;5.814;2023-04-03T13:26:20;20.00;23.20
59505;DHT22;45321;53.200;5.814;2023-04-03T13:28:47;20.00;21.20
59505;DHT22;45321;53.200;5.814;2023-04-03T13:31:18;20.10;23.00
59505;DHT22;45321;53.200;5.814;2023-04-03T13:34:18;20.10;22.60
59505;DHT22;45321;53.200;5.814;2023-04-03T13:41:46;20.80;22.50
59505;DHT22;45321;53.200;5.814;2023-04-03T13:44:28;21.00;23.10
59505;DHT22;45321;53.200;5.814;2023-04-03T13:47:16;21.00;21.50
59505;DHT22;45321;53.200;5.814;2023-04-03T13:49:45;21.40;22.80
59505;DHT22;45321;53.200;5.814;2023-04-03T13:52:48;21.80;23.50
59505;DHT22;45321;53.200;5.814;2023-04-03T13:55:19;22.20;23.20
59505;DHT22;45321;53.200;5.814;2023-04-03T13:57:57;22.60;22.70
59505;DHT22;45321;53.200;5.814;2023-04-03T14:00:38;23.00;22.50
59505;DHT22;45321;53.200;5.814;2023-04-03T14:03:25;23.20;21.80
59505;DHT22;45321;53.200;5.814;2023-04-03T14:05:52;23.20;19.30
59505;DHT22;45321;53.200;5.814;2023-04-03T14:08:19;22.80;19.70
59505;DHT22;45321;53.200;5.814;2023-04-03T14:10:45;23.00;22.00
59505;DHT22;45321;53.200;5.814;2023-04-03T14:13:17;23.20;21.40
59505;DHT22;45321;53.200;5.814;2023-04-03T14:15:44;23.30;21.20
59505;DHT22;45321;53.200;5.814;2023-04-03T14:18:13;23.40;20.50
59505;DHT22;45321;53.200;5.814;2023-04-03T14:20:38;23.70;21.40
59505;DHT22;45321;53.200;5.814;2023-04-03T14:23:04;23.90;21.30
59505;DHT22;45321;53.200;5.814;2023-04-03T14:25:30;24.20;20.90
59505;DHT22;45321;53.200;5.814;2023-04-03T14:27:56;24.50;21.80
59505;DHT22;45321;53.200;5.814;2023-04-03T14:30:32;24.50;19.80
59505;DHT22;45321;53.200;5.814;2023-04-03T14:32:58;24.60;21.20
59505;DHT22;45321;53.200;5.814;2023-04-03T14:35:26;24.70;18.20
59505;DHT22;45321;53.200;5.814;2023-04-03T14:37:53;24.70;20.80
59505;DHT22;45321;53.200;5.814;2023-04-03T14:40:22;24.80;20.50
59505;DHT22;45321;53.200;5.814;2023-04-03T14:42:48;24.70;20.80
59505;DHT22;45321;53.200;5.814;2023-04-03T14:45:15;25.00;20.90
59505;DHT22;45321;53.200;5.814;2023-04-03T14:47:53;25.20;20.20
59505;DHT22;45321;53.200;5.814;2023-04-03T14:50:22;25.20;20.00
59505;DHT22;45321;53.200;5.814;2023-04-03T14:52:50;25.40;19.80
59505;DHT22;45321;53.200;5.814;2023-04-03T14:55:18;25.40;20.40
59505;DHT22;45321;53.200;5.814;2023-04-03T14:57:45;25.20;20.30
59505;DHT22;45321;53.200;5.814;2023-04-03T15:00:20;24.80;19.40
59505;DHT22;45321;53.200;5.814;2023-04-03T15:02:47;25.00;20.10
59505;DHT22;45321;53.200;5.814;2023-04-03T15:05:13;25.00;18.10
59505;DHT22;45321;53.200;5.814;2023-04-03T15:07:54;25.50;20.40
59505;DHT22;45321;53.200;5.814;2023-04-03T15:10:24;26.00;20.20
59505;DHT22;45321;53.200;5.814;2023-04-03T15:12:50;26.40;19.70
59505;DHT22;45321;53.200;5.814;2023-04-03T15:15:19;26.70;19.40
59505;DHT22;45321;53.200;5.814;2023-04-03T15:17:52;27.00;19.40
59505;DHT22;45321;53.200;5.814;2023-04-03T15:20:22;27.20;20.40
59505;DHT22;45321;53.200;5.814;2023-04-03T15:22:48;27.30;19.80
59505;DHT22;45321;53.200;5.814;2023-04-03T15:25:15;27.20;20.00
59505;DHT22;45321;53.200;5.814;2023-04-03T15:27:41;27.20;19.40
59505;DHT22;45321;53.200;5.814;2023-04-03T15:30:11;27.20;20.90
59505;DHT22;45321;53.200;5.814;2023-04-03T15:32:38;27.20;21.00
59505;DHT22;45321;53.200;5.814;2023-04-03T15:35:04;27.40;20.40
59505;DHT22;45321;53.200;5.814;2023-04-03T15:37:30;27.50;20.50
59505;DHT22;45321;53.200;5.814;2023-04-03T15:39:56;27.50;20.70
59505;DHT22;45321;53.200;5.814;2023-04-03T15:42:22;27.60;21.10
59505;DHT22;45321;53.200;5.814;2023-04-03T15:44:48;27.60;20.50
59505;DHT22;45321;53.200;5.814;2023-04-03T15:47:13;27.60;20.20
59505;DHT22;45321;53.200;5.814;2023-04-03T15:49:40;27.60;20.00
59505;DHT22;45321;53.200;5.814;2023-04-03T15:52:06;27.50;20.80
59505;DHT22;45321;53.200;5.814;2023-04-03T15:54:31;27.70;20.80
59505;DHT22;45321;53.200;5.814;2023-04-03T15:56:57;27.70;20.60
59505;DHT22;45321;53.200;5.814;2023-04-03T15:59:23;27.70;20.30
59505;DHT22;45321;53.200;5.814;2023-04-03T16:01:49;27.40;20.20
59505;DHT22;45321;53.200;5.814;2023-04-03T16:04:16;27.30;20.50
59505;DHT22;45321;53.200;5.814;2023-04-03T16:06:42;27.40;20.30
59505;DHT22;45321;53.200;5.814;2023-04-03T16:09:08;27.30;20.10
59505;DHT22;45321;53.200;5.814;2023-04-03T16:11:35;27.40;20.20
59505;DHT22;45321;53.200;5.814;2023-04-03T16:14:03;27.60;20.10
59505;DHT22;45321;53.200;5.814;2023-04-03T16:16:29;27.60;19.40
59505;DHT22;45321;53.200;5.814;2023-04-03T16:18:55;27.50;19.40
59505;DHT22;45321;53.200;5.814;2023-04-03T16:21:22;27.70;20.00
59505;DHT22;45321;53.200;5.814;2023-04-03T16:23:48;27.70;19.60
59505;DHT22;45321;53.200;5.814;2023-04-03T16:26:14;27.40;19.80
59505;DHT22;45321;53.200;5.814;2023-04-03T16:28:40;26.70;19.10
59505;DHT22;45321;53.200;5.814;2023-04-03T16:31:06;26.50;20.20
59505;DHT22;45321;53.200;5.814;2023-04-03T16:33:33;26.30;20.40
59505;DHT22;45321;53.200;5.814;2023-04-03T16:35:59;25.90;20.80
59505;DHT22;45321;53.200;5.814;2023-04-03T16:38:25;25.20;21.10
59505;DHT22;45321;53.200;5.814;2023-04-03T16:40:51;24.70;21.20
59505;DHT22;45321;53.200;5.814;2023-04-03T16:43:18;24.40;21.50
59505;DHT22;45321;53.200;5.814;2023-04-03T16:45:43;24.30;21.70
59505;DHT22;45321;53.200;5.814;2023-04-03T16:48:09;24.00;21.90
59505;DHT22;45321;53.200;5.814;2023-04-03T16:50:39;23.20;22.50
59505;DHT22;45321;53.200;5.814;2023-04-03T16:53:08;22.20;23.60
59505;DHT22;45321;53.200;5.814;2023-04-03T16:55:35;21.20;24.50
59505;DHT22;45321;53.200;5.814;2023-04-03T16:58:01;20.40;25.40
59505;DHT22;45321;53.200;5.814;2023-04-03T17:00:30;19.80;26.30
59505;DHT22;45321;53.200;5.814;2023-04-03T17:02:56;19.50;26.90
59505;DHT22;45321;53.200;5.814;2023-04-03T17:05:21;19.10;27.30
59505;DHT22;45321;53.200;5.814;2023-04-03T17:07:47;18.70;28.10
59505;DHT22;45321;53.200;5.814;2023-04-03T17:10:13;18.20;28.70
59505;DHT22;45321;53.200;5.814;2023-04-03T17:12:39;17.80;29.30
59505;DHT22;45321;53.200;5.814;2023-04-03T17:15:05;17.60;29.70
59505;DHT22;45321;53.200;5.814;2023-04-03T17:17:31;17.20;29.80
59505;DHT22;45321;53.200;5.814;2023-04-03T17:19:57;16.80;30.30
59505;DHT22;45321;53.200;5.814;2023-04-03T17:22:23;16.70;30.80
59505;DHT22;45321;53.200;5.814;2023-04-03T17:24:49;16.40;31.20
59505;DHT22;45321;53.200;5.814;2023-04-03T17:27:15;16.40;31.50
59505;DHT22;45321;53.200;5.814;2023-04-03T17:29:41;16.20;31.80
59505;DHT22;45321;53.200;5.814;2023-04-03T17:32:06;16.00;32.30
59505;DHT22;45321;53.200;5.814;2023-04-03T17:34:32;15.90;32.80
59505;DHT22;45321;53.200;5.814;2023-04-03T17:36:58;15.80;33.00
59505;DHT22;45321;53.200;5.814;2023-04-03T17:39:24;15.70;33.20
59505;DHT22;45321;53.200;5.814;2023-04-03T17:41:50;15.60;33.40
59505;DHT22;45321;53.200;5.814;2023-04-03T17:44:15;15.40;33.80
59505;DHT22;45321;53.200;5.814;2023-04-03T17:46:41;15.30;33.80
59505;DHT22;45321;53.200;5.814;2023-04-03T17:49:07;15.30;33.90
59505;DHT22;45321;53.200;5.814;2023-04-03T17:51:37;15.20;33.90